sensor_id;sensor_type;location;lat;lon;timestamp;P1;durP1;ratioP1;P2;durP2;ratioP2
20101;SDS011;10210;52.284;9.892;2022-10-26T00:00:48;12.23;;;4.97;;
20101;SDS011;10210;52.284;9.892;2022-10-26T00:03:14;13.47;;;5.73;;
20101;SDS011;10210;52.284;9.892;2022-10-26T00:05:42;15.87;;;5.63;;
20101;SDS011;10210;52.284;9.892;2022-10-26T00:08:08;15.20;;;6.80;;
20101;SDS011;10210;52.284;9.892;2022-10-26T00:10:35;14.63;;;6.53;;
20101;SDS011;10210;52.284;9.892;2022-10-26T00:13:04;15.40;;;6.60;;
20101;SDS011;10210;52.284;9.892;2022-10-26T00:15:32;15.80;;;5.73;;
20101;SDS011;10210;52.284;9.892;2022-10-26T00:17:58;14.43;;;5.30;;
20101;SDS011;10210;52.284;9.892;2022-10-26T00:20:24;13.33;;;5.77;;
20101;SDS011;10210;52.284;9.892;2022-10-26T00:22:50;14.80;;;5.90;;
20101;SDS011;10210;52.284;9.892;2022-10-26T00:25:15;16.87;;;6.13;;
20101;SDS011;10210;52.284;9.892;2022-10-26T00:27:41;14.70;;;5.87;;
20101;SDS011;10210;52.284;9.892;2022-10-26T00:30:08;13.90;;;5.37;;
20101;SDS011;10210;52.284;9.892;2022-10-26T00:32:34;14.50;;;5.57;;
20101;SDS011;10210;52.284;9.892;2022-10-26T00:34:59;14.50;;;4.93;;
20101;SDS011;10210;52.284;9.892;2022-10-26T00:37:25;13.23;;;5.70;;
20101;SDS011;10210;52.284;9.892;2022-10-26T00:39:51;11.73;;;4.97;;
20101;SDS011;10210;52.284;9.892;2022-10-26T00:42:18;13.37;;;5.07;;
20101;SDS011;10210;52.284;9.892;2022-10-26T00:47:22;12.90;;;5.37;;
20101;SDS011;10210;52.284;9.892;2022-10-26T00:50:06;13.67;;;4.47;;
20101;SDS011;10210;52.284;9.892;2022-10-26T00:52:47;13.13;;;5.10;;
20101;SDS011;10210;52.284;9.892;2022-10-26T00:55:14;11.57;;;4.17;;
20101;SDS011;10210;52.284;9.892;2022-10-26T00:57:45;11.17;;;4.17;;
20101;SDS011;10210;52.284;9.892;2022-10-26T01:00:13;13.40;;;4.40;;
20101;SDS011;10210;52.284;9.892;2022-10-26T01:02:39;14.50;;;4.87;;
20101;SDS011;10210;52.284;9.892;2022-10-26T01:05:06;14.00;;;5.00;;
20101;SDS011;10210;52.284;9.892;2022-10-26T01:07:32;12.03;;;4.80;;
20101;SDS011;10210;52.284;9.892;2022-10-26T01:09:59;15.53;;;4.63;;
20101;SDS011;10210;52.284;9.892;2022-10-26T01:12:25;14.77;;;4.70;;
20101;SDS011;10210;52.284;9.892;2022-10-26T01:14:51;15.07;;;5.07;;
20101;SDS011;10210;52.284;9.892;2022-10-26T01:23:22;13.73;;;4.50;;
20101;SDS011;10210;52.284;9.892;2022-10-26T01:29:22;16.50;;;5.00;;
20101;SDS011;10210;52.284;9.892;2022-10-26T01:32:10;15.40;;;4.60;;
20101;SDS011;10210;52.284;9.892;2022-10-26T01:38:08;14.53;;;4.80;;
20101;SDS011;10210;52.284;9.892;2022-10-26T01:40:50;13.57;;;4.90;;
20101;SDS011;10210;52.284;9.892;2022-10-26T01:43:23;14.40;;;5.40;;
20101;SDS011;10210;52.284;9.892;2022-10-26T01:45:56;14.47;;;5.47;;
20101;SDS011;10210;52.284;9.892;2022-10-26T01:48:22;17.57;;;6.20;;
20101;SDS011;10210;52.284;9.892;2022-10-26T01:50:52;12.93;;;5.23;;
20101;SDS011;10210;52.284;9.892;2022-10-26T01:53:21;14.77;;;5.03;;
20101;SDS011;10210;52.284;9.892;2022-10-26T01:55:53;16.57;;;5.23;;
20101;SDS011;10210;52.284;9.892;2022-10-26T02:04:17;14.83;;;4.33;;
20101;SDS011;10210;52.284;9.892;2022-10-26T02:07:15;15.97;;;4.50;;
20101;SDS011;10210;52.284;9.892;2022-10-26T02:15:33;12.87;;;4.00;;
20101;SDS011;10210;52.284;9.892;2022-10-26T02:18:26;12.73;;;3.70;;
20101;SDS011;10210;52.284;9.892;2022-10-26T02:21:09;13.23;;;4.77;;
20101;SDS011;10210;52.284;9.892;2022-10-26T02:23:41;10.27;;;3.97;;
20101;SDS011;10210;52.284;9.892;2022-10-26T02:26:11;11.83;;;4.17;;
20101;SDS011;10210;52.284;9.892;2022-10-26T02:28:43;13.47;;;3.70;;
20101;SDS011;10210;52.284;9.892;2022-10-26T02:31:13;12.27;;;3.90;;
20101;SDS011;10210;52.284;9.892;2022-10-26T02:33:45;12.50;;;3.77;;
20101;SDS011;10210;52.284;9.892;2022-10-26T02:36:15;12.23;;;3.70;;
20101;SDS011;10210;52.284;9.892;2022-10-26T02:38:50;10.20;;;3.77;;
20101;SDS011;10210;52.284;9.892;2022-10-26T02:41:18;12.53;;;3.90;;
20101;SDS011;10210;52.284;9.892;2022-10-26T02:43:49;13.20;;;4.00;;
20101;SDS011;10210;52.284;9.892;2022-10-26T02:46:26;11.20;;;3.70;;
20101;SDS011;10210;52.284;9.892;2022-10-26T02:48:53;9.87;;;3.30;;
20101;SDS011;10210;52.284;9.892;2022-10-26T02:57:03;14.07;;;3.70;;
20101;SDS011;10210;52.284;9.892;2022-10-26T02:59:40;10.70;;;3.50;;
20101;SDS011;10210;52.284;9.892;2022-10-26T03:02:11;11.23;;;3.67;;
20101;SDS011;10210;52.284;9.892;2022-10-26T03:04:41;11.30;;;3.87;;
20101;SDS011;10210;52.284;9.892;2022-10-26T03:07:08;10.57;;;3.80;;
20101;SDS011;10210;52.284;9.892;2022-10-26T03:09:33;10.30;;;3.70;;
20101;SDS011;10210;52.284;9.892;2022-10-26T03:11:59;10.10;;;3.73;;
20101;SDS011;10210;52.284;9.892;2022-10-26T03:14:25;11.33;;;3.60;;
20101;SDS011;10210;52.284;9.892;2022-10-26T03:16:50;9.27;;;3.60;;
20101;SDS011;10210;52.284;9.892;2022-10-26T03:19:16;11.03;;;3.73;;
20101;SDS011;10210;52.284;9.892;2022-10-26T03:21:42;9.47;;;3.80;;
20101;SDS011;10210;52.284;9.892;2022-10-26T03:24:08;11.83;;;4.67;;
20101;SDS011;10210;52.284;9.892;2022-10-26T03:26:34;11.47;;;3.60;;
20101;SDS011;10210;52.284;9.892;2022-10-26T03:29:00;13.90;;;4.30;;
20101;SDS011;10210;52.284;9.892;2022-10-26T03:31:25;10.23;;;3.60;;
20101;SDS011;10210;52.284;9.892;2022-10-26T03:33:51;12.30;;;4.03;;
20101;SDS011;10210;52.284;9.892;2022-10-26T03:36:17;9.10;;;3.47;;
20101;SDS011;10210;52.284;9.892;2022-10-26T03:38:42;8.70;;;3.37;;
20101;SDS011;10210;52.284;9.892;2022-10-26T03:41:08;11.90;;;3.87;;
20101;SDS011;10210;52.284;9.892;2022-10-26T03:43:34;10.83;;;3.90;;
20101;SDS011;10210;52.284;9.892;2022-10-26T03:45:59;10.93;;;4.30;;
20101;SDS011;10210;52.284;9.892;2022-10-26T03:48:25;10.80;;;4.30;;
20101;SDS011;10210;52.284;9.892;2022-10-26T03:50:51;8.40;;;3.27;;
20101;SDS011;10210;52.284;9.892;2022-10-26T03:53:16;13.63;;;4.40;;
20101;SDS011;10210;52.284;9.892;2022-10-26T03:55:43;11.20;;;3.90;;
20101;SDS011;10210;52.284;9.892;2022-10-26T03:58:09;12.33;;;4.50;;
20101;SDS011;10210;52.284;9.892;2022-10-26T04:00:34;10.60;;;4.10;;
20101;SDS011;10210;52.284;9.892;2022-10-26T04:03:00;11.33;;;3.70;;
20101;SDS011;10210;52.284;9.892;2022-10-26T04:05:26;9.67;;;3.83;;
20101;SDS011;10210;52.284;9.892;2022-10-26T04:07:54;10.40;;;3.90;;
20101;SDS011;10210;52.284;9.892;2022-10-26T04:10:23;11.63;;;3.90;;
20101;SDS011;10210;52.284;9.892;2022-10-26T04:12:51;10.80;;;3.80;;
20101;SDS011;10210;52.284;9.892;2022-10-26T04:15:18;8.87;;;3.40;;
20101;SDS011;10210;52.284;9.892;2022-10-26T04:17:44;11.23;;;3.73;;
20101;SDS011;10210;52.284;9.892;2022-10-26T04:20:11;10.97;;;3.90;;
20101;SDS011;10210;52.284;9.892;2022-10-26T04:22:37;10.23;;;4.07;;
20101;SDS011;10210;52.284;9.892;2022-10-26T04:25:03;11.23;;;4.00;;
20101;SDS011;10210;52.284;9.892;2022-10-26T04:27:30;11.97;;;4.70;;
20101;SDS011;10210;52.284;9.892;2022-10-26T04:29:56;12.50;;;4.13;;
20101;SDS011;10210;52.284;9.892;2022-10-26T04:32:22;13.27;;;4.47;;
20101;SDS011;10210;52.284;9.892;2022-10-26T04:34:48;11.73;;;4.23;;
20101;SDS011;10210;52.284;9.892;2022-10-26T04:37:13;10.43;;;3.53;;
20101;SDS011;10210;52.284;9.892;2022-10-26T04:39:39;10.23;;;3.90;;
20101;SDS011;10210;52.284;9.892;2022-10-26T04:42:05;10.73;;;4.27;;
20101;SDS011;10210;52.284;9.892;2022-10-26T04:44:31;11.50;;;4.23;;
20101;SDS011;10210;52.284;9.892;2022-10-26T04:46:57;14.97;;;5.37;;
20101;SDS011;10210;52.284;9.892;2022-10-26T04:49:22;11.80;;;4.73;;
20101;SDS011;10210;52.284;9.892;2022-10-26T04:51:48;14.83;;;4.83;;
20101;SDS011;10210;52.284;9.892;2022-10-26T04:54:14;13.37;;;4.93;;
20101;SDS011;10210;52.284;9.892;2022-10-26T04:56:39;14.20;;;4.70;;
20101;SDS011;10210;52.284;9.892;2022-10-26T04:59:05;13.60;;;4.80;;
20101;SDS011;10210;52.284;9.892;2022-10-26T05:01:31;14.53;;;4.70;;
20101;SDS011;10210;52.284;9.892;2022-10-26T05:03:57;12.53;;;4.67;;
20101;SDS011;10210;52.284;9.892;2022-10-26T05:06:23;14.77;;;4.70;;
20101;SDS011;10210;52.284;9.892;2022-10-26T05:08:48;12.93;;;4.63;;
20101;SDS011;10210;52.284;9.892;2022-10-26T05:11:14;12.47;;;4.37;;
20101;SDS011;10210;52.284;9.892;2022-10-26T05:13:40;12.60;;;4.67;;
20101;SDS011;10210;52.284;9.892;2022-10-26T05:16:06;11.57;;;4.43;;
20101;SDS011;10210;52.284;9.892;2022-10-26T05:18:31;10.90;;;4.33;;
20101;SDS011;10210;52.284;9.892;2022-10-26T05:20:57;11.40;;;4.20;;
20101;SDS011;10210;52.284;9.892;2022-10-26T05:23:23;11.40;;;4.50;;
20101;SDS011;10210;52.284;9.892;2022-10-26T05:25:49;13.40;;;4.23;;
20101;SDS011;10210;52.284;9.892;2022-10-26T05:28:15;11.87;;;4.23;;
20101;SDS011;10210;52.284;9.892;2022-10-26T05:30:43;10.27;;;4.27;;
20101;SDS011;10210;52.284;9.892;2022-10-26T05:33:10;9.40;;;3.93;;
20101;SDS011;10210;52.284;9.892;2022-10-26T05:35:38;10.63;;;4.00;;
20101;SDS011;10210;52.284;9.892;2022-10-26T05:38:13;12.70;;;3.77;;
20101;SDS011;10210;52.284;9.892;2022-10-26T05:40:45;13.30;;;4.20;;
20101;SDS011;10210;52.284;9.892;2022-10-26T05:43:15;12.83;;;4.67;;
20101;SDS011;10210;52.284;9.892;2022-10-26T05:45:43;13.23;;;4.33;;
20101;SDS011;10210;52.284;9.892;2022-10-26T05:48:08;14.80;;;4.53;;
20101;SDS011;10210;52.284;9.892;2022-10-26T05:50:34;15.37;;;4.30;;
20101;SDS011;10210;52.284;9.892;2022-10-26T05:53:00;13.17;;;4.33;;
20101;SDS011;10210;52.284;9.892;2022-10-26T05:55:26;10.77;;;3.93;;
20101;SDS011;10210;52.284;9.892;2022-10-26T05:57:52;12.10;;;4.00;;
20101;SDS011;10210;52.284;9.892;2022-10-26T06:00:19;11.17;;;3.87;;
20101;SDS011;10210;52.284;9.892;2022-10-26T06:05:50;13.17;;;4.23;;
20101;SDS011;10210;52.284;9.892;2022-10-26T06:08:22;9.50;;;3.70;;
20101;SDS011;10210;52.284;9.892;2022-10-26T06:10:53;10.33;;;3.77;;
20101;SDS011;10210;52.284;9.892;2022-10-26T06:13:23;12.70;;;4.20;;
20101;SDS011;10210;52.284;9.892;2022-10-26T06:21:50;11.80;;;3.80;;
20101;SDS011;10210;52.284;9.892;2022-10-26T06:24:41;12.70;;;3.83;;
20101;SDS011;10210;52.284;9.892;2022-10-26T06:30:16;12.77;;;3.73;;
20101;SDS011;10210;52.284;9.892;2022-10-26T06:32:44;9.70;;;3.53;;
20101;SDS011;10210;52.284;9.892;2022-10-26T06:35:18;12.63;;;3.57;;
20101;SDS011;10210;52.284;9.892;2022-10-26T06:37:58;12.60;;;3.77;;
20101;SDS011;10210;52.284;9.892;2022-10-26T06:40:31;11.27;;;3.70;;
20101;SDS011;10210;52.284;9.892;2022-10-26T06:43:00;12.27;;;4.27;;
20101;SDS011;10210;52.284;9.892;2022-10-26T06:45:26;11.43;;;3.83;;
20101;SDS011;10210;52.284;9.892;2022-10-26T06:55:47;13.13;;;4.00;;
20101;SDS011;10210;52.284;9.892;2022-10-26T06:58:16;10.53;;;3.57;;
20101;SDS011;10210;52.284;9.892;2022-10-26T07:00:46;8.93;;;3.50;;
20101;SDS011;10210;52.284;9.892;2022-10-26T07:03:14;8.20;;;3.20;;
20101;SDS011;10210;52.284;9.892;2022-10-26T07:05:41;10.90;;;3.60;;
20101;SDS011;10210;52.284;9.892;2022-10-26T07:08:26;11.93;;;3.70;;
20101;SDS011;10210;52.284;9.892;2022-10-26T07:10:51;8.77;;;3.37;;
20101;SDS011;10210;52.284;9.892;2022-10-26T07:13:17;10.93;;;3.60;;
20101;SDS011;10210;52.284;9.892;2022-10-26T07:15:43;15.80;;;4.20;;
20101;SDS011;10210;52.284;9.892;2022-10-26T07:18:09;10.57;;;3.70;;
20101;SDS011;10210;52.284;9.892;2022-10-26T07:20:35;11.77;;;3.57;;
20101;SDS011;10210;52.284;9.892;2022-10-26T07:23:03;11.43;;;3.03;;
20101;SDS011;10210;52.284;9.892;2022-10-26T07:25:31;8.90;;;3.20;;
20101;SDS011;10210;52.284;9.892;2022-10-26T07:27:58;9.67;;;3.03;;
20101;SDS011;10210;52.284;9.892;2022-10-26T07:30:25;10.30;;;3.07;;
20101;SDS011;10210;52.284;9.892;2022-10-26T07:33:02;10.93;;;3.17;;
20101;SDS011;10210;52.284;9.892;2022-10-26T07:35:35;11.23;;;3.60;;
20101;SDS011;10210;52.284;9.892;2022-10-26T07:38:00;7.57;;;3.20;;
20101;SDS011;10210;52.284;9.892;2022-10-26T07:40:27;12.73;;;3.40;;
20101;SDS011;10210;52.284;9.892;2022-10-26T07:42:57;11.40;;;3.10;;
20101;SDS011;10210;52.284;9.892;2022-10-26T07:45:25;9.67;;;3.40;;
20101;SDS011;10210;52.284;9.892;2022-10-26T07:47:52;9.27;;;3.20;;
20101;SDS011;10210;52.284;9.892;2022-10-26T07:50:18;10.17;;;3.00;;
20101;SDS011;10210;52.284;9.892;2022-10-26T07:52:44;8.43;;;3.07;;
20101;SDS011;10210;52.284;9.892;2022-10-26T07:55:10;9.87;;;2.90;;
20101;SDS011;10210;52.284;9.892;2022-10-26T07:57:37;11.07;;;3.00;;
20101;SDS011;10210;52.284;9.892;2022-10-26T08:00:04;10.73;;;3.50;;
20101;SDS011;10210;52.284;9.892;2022-10-26T08:02:32;9.00;;;3.27;;
20101;SDS011;10210;52.284;9.892;2022-10-26T08:04:58;10.93;;;3.57;;
20101;SDS011;10210;52.284;9.892;2022-10-26T08:07:24;8.80;;;3.20;;
20101;SDS011;10210;52.284;9.892;2022-10-26T08:09:51;11.47;;;3.77;;
20101;SDS011;10210;52.284;9.892;2022-10-26T08:12:17;9.17;;;3.10;;
20101;SDS011;10210;52.284;9.892;2022-10-26T08:14:43;10.13;;;3.20;;
20101;SDS011;10210;52.284;9.892;2022-10-26T08:17:09;11.77;;;3.10;;
20101;SDS011;10210;52.284;9.892;2022-10-26T08:19:35;13.00;;;3.20;;
20101;SDS011;10210;52.284;9.892;2022-10-26T08:22:01;9.57;;;3.13;;
20101;SDS011;10210;52.284;9.892;2022-10-26T08:24:27;9.23;;;3.17;;
20101;SDS011;10210;52.284;9.892;2022-10-26T08:26:53;11.07;;;3.30;;
20101;SDS011;10210;52.284;9.892;2022-10-26T08:29:19;10.30;;;3.30;;
20101;SDS011;10210;52.284;9.892;2022-10-26T08:31:46;9.63;;;3.27;;
20101;SDS011;10210;52.284;9.892;2022-10-26T08:34:13;10.07;;;3.50;;
20101;SDS011;10210;52.284;9.892;2022-10-26T08:36:39;11.53;;;3.60;;
20101;SDS011;10210;52.284;9.892;2022-10-26T08:39:04;9.00;;;3.20;;
20101;SDS011;10210;52.284;9.892;2022-10-26T08:47:34;11.57;;;3.30;;
20101;SDS011;10210;52.284;9.892;2022-10-26T08:49:45;9.33;;;3.00;;
20101;SDS011;10210;52.284;9.892;2022-10-26T08:52:21;8.03;;;2.87;;
20101;SDS011;10210;52.284;9.892;2022-10-26T08:55:00;7.30;;;2.70;;
20101;SDS011;10210;52.284;9.892;2022-10-26T08:57:38;10.43;;;3.00;;
20101;SDS011;10210;52.284;9.892;2022-10-26T09:00:06;12.70;;;3.50;;
20101;SDS011;10210;52.284;9.892;2022-10-26T09:02:42;8.07;;;3.27;;
20101;SDS011;10210;52.284;9.892;2022-10-26T09:05:15;9.67;;;3.73;;
20101;SDS011;10210;52.284;9.892;2022-10-26T09:25:21;8.17;;;2.50;;
20101;SDS011;10210;52.284;9.892;2022-10-26T09:27:51;9.07;;;2.70;;
20101;SDS011;10210;52.284;9.892;2022-10-26T09:30:25;10.30;;;2.60;;
20101;SDS011;10210;52.284;9.892;2022-10-26T09:32:54;8.97;;;2.63;;
20101;SDS011;10210;52.284;9.892;2022-10-26T09:43:51;8.60;;;2.53;;
20101;SDS011;10210;52.284;9.892;2022-10-26T09:46:56;8.47;;;2.97;;
20101;SDS011;10210;52.284;9.892;2022-10-26T09:49:21;9.00;;;2.57;;
20101;SDS011;10210;52.284;9.892;2022-10-26T09:51:59;10.50;;;2.30;;
20101;SDS011;10210;52.284;9.892;2022-10-26T09:54:25;5.63;;;2.10;;
20101;SDS011;10210;52.284;9.892;2022-10-26T09:56:52;6.37;;;2.20;;
20101;SDS011;10210;52.284;9.892;2022-10-26T09:59:23;6.77;;;2.07;;
20101;SDS011;10210;52.284;9.892;2022-10-26T10:01:50;7.40;;;2.23;;
20101;SDS011;10210;52.284;9.892;2022-10-26T10:06:45;6.77;;;2.23;;
20101;SDS011;10210;52.284;9.892;2022-10-26T10:09:17;6.53;;;2.10;;
20101;SDS011;10210;52.284;9.892;2022-10-26T10:11:49;8.07;;;2.17;;
20101;SDS011;10210;52.284;9.892;2022-10-26T10:14:27;9.93;;;2.40;;
20101;SDS011;10210;52.284;9.892;2022-10-26T10:17:03;8.23;;;2.40;;
20101;SDS011;10210;52.284;9.892;2022-10-26T10:19:36;5.83;;;2.10;;
20101;SDS011;10210;52.284;9.892;2022-10-26T10:24:51;9.17;;;2.20;;
20101;SDS011;10210;52.284;9.892;2022-10-26T10:27:25;7.30;;;2.53;;
20101;SDS011;10210;52.284;9.892;2022-10-26T10:29:53;6.93;;;2.20;;
20101;SDS011;10210;52.284;9.892;2022-10-26T10:32:22;8.97;;;2.00;;
20101;SDS011;10210;52.284;9.892;2022-10-26T10:34:52;6.97;;;2.50;;
20101;SDS011;10210;52.284;9.892;2022-10-26T10:37:26;7.00;;;1.90;;
20101;SDS011;10210;52.284;9.892;2022-10-26T10:40:21;8.70;;;2.13;;
20101;SDS011;10210;52.284;9.892;2022-10-26T10:42:51;8.77;;;2.20;;
20101;SDS011;10210;52.284;9.892;2022-10-26T10:45:27;8.17;;;2.27;;
20101;SDS011;10210;52.284;9.892;2022-10-26T10:50:29;7.23;;;2.00;;
20101;SDS011;10210;52.284;9.892;2022-10-26T10:56:11;7.20;;;2.10;;
20101;SDS011;10210;52.284;9.892;2022-10-26T11:01:50;7.57;;;2.00;;
20101;SDS011;10210;52.284;9.892;2022-10-26T11:04:42;4.73;;;2.03;;
20101;SDS011;10210;52.284;9.892;2022-10-26T11:08:06;7.87;;;2.00;;
20101;SDS011;10210;52.284;9.892;2022-10-26T11:10:37;8.53;;;2.10;;
20101;SDS011;10210;52.284;9.892;2022-10-26T11:13:15;6.53;;;2.00;;
20101;SDS011;10210;52.284;9.892;2022-10-26T11:15:51;6.83;;;2.20;;
20101;SDS011;10210;52.284;9.892;2022-10-26T11:18:26;5.77;;;2.00;;
20101;SDS011;10210;52.284;9.892;2022-10-26T11:21:22;11.70;;;2.30;;
20101;SDS011;10210;52.284;9.892;2022-10-26T11:26:38;8.47;;;2.40;;
20101;SDS011;10210;52.284;9.892;2022-10-26T11:31:52;8.53;;;2.37;;
20101;SDS011;10210;52.284;9.892;2022-10-26T11:34:46;5.87;;;2.10;;
20101;SDS011;10210;52.284;9.892;2022-10-26T11:40:58;10.63;;;2.10;;
20101;SDS011;10210;52.284;9.892;2022-10-26T11:43:47;9.90;;;2.30;;
20101;SDS011;10210;52.284;9.892;2022-10-26T11:49:01;6.70;;;1.90;;
20101;SDS011;10210;52.284;9.892;2022-10-26T11:54:20;8.20;;;2.10;;
20101;SDS011;10210;52.284;9.892;2022-10-26T11:56:55;5.67;;;1.70;;
20101;SDS011;10210;52.284;9.892;2022-10-26T11:59:26;7.20;;;1.90;;
20101;SDS011;10210;52.284;9.892;2022-10-26T12:02:01;7.40;;;1.90;;
20101;SDS011;10210;52.284;9.892;2022-10-26T12:04:36;7.77;;;2.40;;
20101;SDS011;10210;52.284;9.892;2022-10-26T12:07:07;5.07;;;1.63;;
20101;SDS011;10210;52.284;9.892;2022-10-26T12:09:45;6.37;;;1.73;;
20101;SDS011;10210;52.284;9.892;2022-10-26T12:12:32;5.60;;;1.63;;
20101;SDS011;10210;52.284;9.892;2022-10-26T12:18:33;8.13;;;2.00;;
20101;SDS011;10210;52.284;9.892;2022-10-26T12:21:14;6.00;;;1.53;;
20101;SDS011;10210;52.284;9.892;2022-10-26T12:32:01;5.03;;;1.37;;
20101;SDS011;10210;52.284;9.892;2022-10-26T12:44:35;9.63;;;1.60;;
20101;SDS011;10210;52.284;9.892;2022-10-26T12:55:41;8.87;;;2.10;;
20101;SDS011;10210;52.284;9.892;2022-10-26T13:01:28;3.33;;;1.30;;
20101;SDS011;10210;52.284;9.892;2022-10-26T13:04:36;7.30;;;1.70;;
20101;SDS011;10210;52.284;9.892;2022-10-26T13:07:41;7.57;;;1.80;;
20101;SDS011;10210;52.284;9.892;2022-10-26T13:12:59;9.70;;;1.77;;
20101;SDS011;10210;52.284;9.892;2022-10-26T13:20:31;6.23;;;2.03;;
20101;SDS011;10210;52.284;9.892;2022-10-26T13:23:00;9.50;;;1.70;;
20101;SDS011;10210;52.284;9.892;2022-10-26T13:25:39;6.10;;;1.70;;
20101;SDS011;10210;52.284;9.892;2022-10-26T13:28:06;5.40;;;1.63;;
20101;SDS011;10210;52.284;9.892;2022-10-26T13:34:03;6.27;;;1.70;;
20101;SDS011;10210;52.284;9.892;2022-10-26T13:39:25;6.73;;;1.80;;
20101;SDS011;10210;52.284;9.892;2022-10-26T13:41:59;5.60;;;1.57;;
20101;SDS011;10210;52.284;9.892;2022-10-26T13:44:34;5.10;;;1.70;;
20101;SDS011;10210;52.284;9.892;2022-10-26T13:47:40;4.30;;;1.57;;
20101;SDS011;10210;52.284;9.892;2022-10-26T13:50:23;6.00;;;1.70;;
20101;SDS011;10210;52.284;9.892;2022-10-26T13:52:57;6.00;;;1.70;;
20101;SDS011;10210;52.284;9.892;2022-10-26T13:55:32;5.57;;;1.90;;
20101;SDS011;10210;52.284;9.892;2022-10-26T14:03:34;5.40;;;1.70;;
20101;SDS011;10210;52.284;9.892;2022-10-26T14:08:50;9.17;;;2.10;;
20101;SDS011;10210;52.284;9.892;2022-10-26T14:11:22;9.13;;;2.03;;
20101;SDS011;10210;52.284;9.892;2022-10-26T14:13:58;7.10;;;1.93;;
20101;SDS011;10210;52.284;9.892;2022-10-26T14:16:27;5.23;;;1.73;;
20101;SDS011;10210;52.284;9.892;2022-10-26T14:18:56;5.90;;;1.93;;
20101;SDS011;10210;52.284;9.892;2022-10-26T14:21:22;6.60;;;2.40;;
20101;SDS011;10210;52.284;9.892;2022-10-26T14:23:55;6.33;;;1.90;;
20101;SDS011;10210;52.284;9.892;2022-10-26T14:28:54;7.63;;;2.07;;
20101;SDS011;10210;52.284;9.892;2022-10-26T14:31:24;6.53;;;1.90;;
20101;SDS011;10210;52.284;9.892;2022-10-26T14:33:56;6.37;;;1.90;;
20101;SDS011;10210;52.284;9.892;2022-10-26T14:36:59;8.77;;;2.10;;
20101;SDS011;10210;52.284;9.892;2022-10-26T14:39:28;8.27;;;2.10;;
20101;SDS011;10210;52.284;9.892;2022-10-26T14:47:58;5.40;;;1.80;;
20101;SDS011;10210;52.284;9.892;2022-10-26T14:50:26;7.77;;;2.27;;
20101;SDS011;10210;52.284;9.892;2022-10-26T14:53:01;6.07;;;2.00;;
20101;SDS011;10210;52.284;9.892;2022-10-26T14:55:45;6.77;;;2.00;;
20101;SDS011;10210;52.284;9.892;2022-10-26T14:58:48;6.00;;;2.10;;
20101;SDS011;10210;52.284;9.892;2022-10-26T15:03:47;8.73;;;2.33;;
20101;SDS011;10210;52.284;9.892;2022-10-26T15:09:03;9.93;;;2.40;;
20101;SDS011;10210;52.284;9.892;2022-10-26T15:11:31;8.93;;;2.40;;
20101;SDS011;10210;52.284;9.892;2022-10-26T15:13:59;10.13;;;2.60;;
20101;SDS011;10210;52.284;9.892;2022-10-26T15:16:26;10.03;;;2.40;;
20101;SDS011;10210;52.284;9.892;2022-10-26T15:19:05;8.97;;;2.77;;
20101;SDS011;10210;52.284;9.892;2022-10-26T15:21:44;8.87;;;3.00;;
20101;SDS011;10210;52.284;9.892;2022-10-26T15:24:34;12.67;;;2.93;;
20101;SDS011;10210;52.284;9.892;2022-10-26T15:27:03;9.63;;;3.10;;
20101;SDS011;10210;52.284;9.892;2022-10-26T15:32:26;7.33;;;2.50;;
20101;SDS011;10210;52.284;9.892;2022-10-26T15:35:14;9.07;;;2.63;;
20101;SDS011;10210;52.284;9.892;2022-10-26T15:37:42;6.13;;;2.20;;
20101;SDS011;10210;52.284;9.892;2022-10-26T15:40:10;9.50;;;2.93;;
20101;SDS011;10210;52.284;9.892;2022-10-26T15:42:37;9.90;;;2.80;;
20101;SDS011;10210;52.284;9.892;2022-10-26T15:45:13;14.70;;;2.70;;
20101;SDS011;10210;52.284;9.892;2022-10-26T15:47:52;8.63;;;2.60;;
20101;SDS011;10210;52.284;9.892;2022-10-26T15:50:22;7.93;;;2.10;;
20101;SDS011;10210;52.284;9.892;2022-10-26T15:52:54;8.03;;;2.40;;
20101;SDS011;10210;52.284;9.892;2022-10-26T15:55:26;9.07;;;3.10;;
20101;SDS011;10210;52.284;9.892;2022-10-26T15:57:54;9.63;;;2.37;;
20101;SDS011;10210;52.284;9.892;2022-10-26T16:00:20;9.63;;;2.20;;
20101;SDS011;10210;52.284;9.892;2022-10-26T16:02:45;6.63;;;2.13;;
20101;SDS011;10210;52.284;9.892;2022-10-26T16:05:12;9.77;;;2.10;;
20101;SDS011;10210;52.284;9.892;2022-10-26T16:07:40;6.53;;;2.03;;
20101;SDS011;10210;52.284;9.892;2022-10-26T16:10:11;9.63;;;2.30;;
20101;SDS011;10210;52.284;9.892;2022-10-26T16:12:42;7.47;;;2.67;;
20101;SDS011;10210;52.284;9.892;2022-10-26T16:15:08;5.20;;;2.50;;
20101;SDS011;10210;52.284;9.892;2022-10-26T16:17:45;9.20;;;2.57;;
20101;SDS011;10210;52.284;9.892;2022-10-26T16:20:12;9.50;;;2.73;;
20101;SDS011;10210;52.284;9.892;2022-10-26T16:22:46;7.90;;;2.50;;
20101;SDS011;10210;52.284;9.892;2022-10-26T16:25:14;5.83;;;2.43;;
20101;SDS011;10210;52.284;9.892;2022-10-26T16:27:43;7.27;;;2.30;;
20101;SDS011;10210;52.284;9.892;2022-10-26T16:30:10;7.37;;;2.43;;
20101;SDS011;10210;52.284;9.892;2022-10-26T16:32:37;8.53;;;2.93;;
20101;SDS011;10210;52.284;9.892;2022-10-26T16:35:04;14.20;;;3.67;;
20101;SDS011;10210;52.284;9.892;2022-10-26T16:37:30;10.03;;;3.60;;
20101;SDS011;10210;52.284;9.892;2022-10-26T16:39:56;10.30;;;3.20;;
20101;SDS011;10210;52.284;9.892;2022-10-26T16:42:23;9.03;;;2.80;;
20101;SDS011;10210;52.284;9.892;2022-10-26T16:44:49;9.00;;;2.73;;
20101;SDS011;10210;52.284;9.892;2022-10-26T16:47:15;8.30;;;2.70;;
20101;SDS011;10210;52.284;9.892;2022-10-26T16:49:41;8.97;;;2.90;;
20101;SDS011;10210;52.284;9.892;2022-10-26T16:52:09;8.27;;;2.90;;
20101;SDS011;10210;52.284;9.892;2022-10-26T16:54:35;7.67;;;2.60;;
20101;SDS011;10210;52.284;9.892;2022-10-26T16:57:01;11.27;;;2.90;;
20101;SDS011;10210;52.284;9.892;2022-10-26T16:59:27;8.23;;;2.80;;
20101;SDS011;10210;52.284;9.892;2022-10-26T17:01:53;9.53;;;3.17;;
20101;SDS011;10210;52.284;9.892;2022-10-26T17:04:19;11.50;;;3.50;;
20101;SDS011;10210;52.284;9.892;2022-10-26T17:06:44;10.07;;;2.97;;
20101;SDS011;10210;52.284;9.892;2022-10-26T17:09:10;9.17;;;3.33;;
20101;SDS011;10210;52.284;9.892;2022-10-26T17:11:36;8.17;;;3.10;;
20101;SDS011;10210;52.284;9.892;2022-10-26T17:14:01;10.73;;;3.30;;
20101;SDS011;10210;52.284;9.892;2022-10-26T17:16:27;11.00;;;3.20;;
20101;SDS011;10210;52.284;9.892;2022-10-26T17:18:53;10.07;;;2.80;;
20101;SDS011;10210;52.284;9.892;2022-10-26T17:21:25;12.77;;;3.37;;
20101;SDS011;10210;52.284;9.892;2022-10-26T17:23:58;9.47;;;3.47;;
20101;SDS011;10210;52.284;9.892;2022-10-26T17:26:24;8.97;;;3.00;;
20101;SDS011;10210;52.284;9.892;2022-10-26T17:28:50;10.30;;;3.27;;
20101;SDS011;10210;52.284;9.892;2022-10-26T17:31:18;10.53;;;2.70;;
20101;SDS011;10210;52.284;9.892;2022-10-26T17:33:44;12.73;;;3.50;;
20101;SDS011;10210;52.284;9.892;2022-10-26T17:36:14;9.93;;;3.57;;
20101;SDS011;10210;52.284;9.892;2022-10-26T17:38:44;12.07;;;2.93;;
20101;SDS011;10210;52.284;9.892;2022-10-26T17:41:15;8.37;;;2.77;;
20101;SDS011;10210;52.284;9.892;2022-10-26T17:43:43;11.17;;;3.47;;
20101;SDS011;10210;52.284;9.892;2022-10-26T17:46:11;13.10;;;3.70;;
20101;SDS011;10210;52.284;9.892;2022-10-26T17:48:39;9.37;;;3.23;;
20101;SDS011;10210;52.284;9.892;2022-10-26T17:51:07;8.27;;;3.07;;
20101;SDS011;10210;52.284;9.892;2022-10-26T17:53:38;11.90;;;3.47;;
20101;SDS011;10210;52.284;9.892;2022-10-26T17:56:11;10.33;;;3.30;;
20101;SDS011;10210;52.284;9.892;2022-10-26T17:58:41;8.23;;;3.17;;
20101;SDS011;10210;52.284;9.892;2022-10-26T18:01:09;12.83;;;3.43;;
20101;SDS011;10210;52.284;9.892;2022-10-26T18:03:37;10.53;;;3.37;;
20101;SDS011;10210;52.284;9.892;2022-10-26T18:06:04;10.60;;;3.50;;